createdAt,value
2022-10-05T10:30:19.011Z,22.52
2022-10-05T10:31:47.905Z,22.28
2022-10-05T10:33:22.417Z,22.27
2022-10-05T10:34:50.143Z,22.18
2022-10-05T10:36:01.601Z,22.30
2022-10-05T10:37:36.281Z,22.53
2022-10-05T10:38:58.549Z,21.97
2022-10-05T10:40:21.288Z,21.88
2022-10-05T10:42:01.360Z,21.33
2022-10-05T10:43:41.178Z,21.39
2022-10-05T10:45:10.435Z,21.93
2022-10-05T10:46:28.110Z,22.61
2022-10-05T10:47:49.895Z,22.50
2022-10-05T10:49:17.017Z,21.93
2022-10-05T10:50:35.498Z,21.71
2022-10-05T10:52:13.290Z,21.33
2022-10-05T10:53:34.415Z,21.88
2022-10-05T10:55:16.942Z,21.88
2022-10-05T10:56:32.044Z,22.00
2022-10-05T10:57:51.320Z,21.68
2022-10-05T10:59:25.559Z,22.02
2022-10-05T11:00:55.192Z,21.85
2022-10-05T11:02:38.916Z,21.74
2022-10-05T11:04:16.368Z,21.63
2022-10-05T11:05:33.908Z,21.56
2022-10-05T11:07:08.618Z,22.20
2022-10-05T11:08:58.580Z,22.03
2022-10-05T11:10:19.905Z,22.30
2022-10-05T11:11:52.498Z,21.39
2022-10-05T11:13:27.477Z,21.77
2022-10-05T11:14:48.256Z,21.98
2022-10-05T11:16:27.309Z,22.01
2022-10-05T11:17:59.600Z,22.29
2022-10-05T11:19:35.107Z,22.59
2022-10-05T11:21:08.151Z,22.63
2022-10-05T11:22:32.487Z,22.37
2022-10-05T11:24:06.486Z,22.08
2022-10-05T11:25:29.278Z,22.27
2022-10-05T11:26:56.469Z,22.80
2022-10-05T11:28:17.880Z,22.97
2022-10-05T11:31:01.842Z,22.31
2022-10-05T11:32:36.942Z,21.84
2022-10-05T11:34:10.601Z,21.47
2022-10-05T11:35:52.341Z,21.28
2022-10-05T11:37:18.768Z,21.66
2022-10-05T11:38:51.335Z,22.23
2022-10-05T11:40:29.558Z,22.59
2022-10-05T11:42:04.674Z,21.95
2022-10-05T11:43:41.828Z,21.98
2022-10-05T11:45:16.289Z,22.80
2022-10-05T11:46:30.732Z,22.94
2022-10-05T11:47:52.146Z,22.74
2022-10-05T11:49:19.557Z,22.57
2022-10-05T11:50:30.538Z,22.06
2022-10-05T11:51:48.438Z,22.37
2022-10-05T11:52:59.121Z,22.24
2022-10-05T11:54:23.447Z,22.90
2022-10-05T11:55:32.864Z,22.75
2022-10-05T11:56:40.153Z,22.89
2022-10-05T11:57:51.465Z,23.15
2022-10-05T11:58:58.519Z,22.89
2022-10-05T12:00:14.681Z,23.23
2022-10-05T12:01:28.723Z,23.65
2022-10-05T12:02:59.427Z,24.25
2022-10-05T12:04:16.476Z,24.24
2022-10-05T12:05:22.354Z,24.02
2022-10-05T12:06:53.957Z,24.38
2022-10-05T12:08:08.769Z,24.17
2022-10-05T12:09:29.724Z,23.63
2022-10-05T12:10:40.872Z,23.97
2022-10-05T12:11:58.558Z,24.45
2022-10-05T12:13:27.974Z,24.36
2022-10-05T12:14:44.137Z,24.69
2022-10-05T12:15:53.427Z,24.63
2022-10-05T12:17:03.467Z,24.62
2022-10-05T12:18:14.014Z,25.38
2022-10-05T12:19:28.391Z,25.51
2022-10-05T12:20:41.225Z,25.75
2022-10-05T12:21:52.884Z,25.82
2022-10-05T12:22:58.918Z,25.39
2022-10-05T12:24:11.313Z,25.44
2022-10-05T12:25:28.484Z,25.23
2022-10-05T12:26:38.044Z,25.65
2022-10-05T12:27:44.126Z,26.27
2022-10-05T12:28:52.955Z,26.79
2022-10-05T12:30:03.641Z,26.50
2022-10-05T12:31:23.640Z,26.26
2022-10-05T12:32:36.401Z,26.69
2022-10-05T12:33:46.389Z,26.87
2022-10-05T12:35:01.870Z,25.77
2022-10-05T12:36:13.180Z,25.65
2022-10-05T12:37:40.208Z,25.89
2022-10-05T12:38:51.859Z,25.33
2022-10-05T12:39:57.024Z,25.66
2022-10-05T12:41:11.148Z,25.47
2022-10-05T12:42:26.168Z,26.26
2022-10-05T12:43:41.273Z,26.82
2022-10-05T12:45:15.403Z,27.25
2022-10-05T12:46:33.893Z,27.82
2022-10-05T12:47:53.927Z,27.35
2022-10-05T12:49:25.592Z,26.76
2022-10-05T12:50:35.044Z,26.53
2022-10-05T12:51:42.361Z,26.97
2022-10-05T12:53:04.332Z,26.38
2022-10-05T12:54:18.646Z,26.54
2022-10-05T12:55:26.329Z,26.23
2022-10-05T12:56:45.504Z,26.92
2022-10-05T12:58:00.877Z,27.58
2022-10-05T12:59:14.425Z,27.14
2022-10-05T13:00:23.156Z,26.82
2022-10-05T13:01:39.641Z,26.73
2022-10-05T13:02:49.221Z,27.41
2022-10-05T13:03:58.882Z,27.43
2022-10-05T13:05:21.358Z,27.47
2022-10-05T13:06:32.920Z,26.83
2022-10-05T13:07:50.584Z,26.77
2022-10-05T13:09:06.590Z,26.95
2022-10-05T13:10:21.207Z,26.82
2022-10-05T13:11:35.257Z,27.33
2022-10-05T13:12:51.237Z,28.01
2022-10-05T13:14:02.505Z,28.62
2022-10-05T13:15:18.198Z,29.41
2022-10-05T13:16:31.563Z,29.03
2022-10-05T13:17:42.371Z,28.84
2022-10-05T13:18:59.122Z,27.64
2022-10-05T13:20:14.802Z,28.52
2022-10-05T13:21:24.904Z,29.60
2022-10-05T13:22:37.473Z,28.88
2022-10-05T13:23:57.137Z,28.69
2022-10-05T13:25:19.776Z,29.21
2022-10-05T13:26:28.208Z,29.54
2022-10-05T13:27:38.184Z,29.79
2022-10-05T13:28:47.660Z,28.12
2022-10-05T13:29:55.963Z,27.59
2022-10-05T13:31:07.889Z,26.79
2022-10-05T13:32:16.566Z,27.08
2022-10-05T13:33:29.586Z,27.91
2022-10-05T13:34:40.324Z,27.75
2022-10-05T13:35:52.829Z,28.19
2022-10-05T13:37:08.673Z,29.07
2022-10-05T13:38:23.645Z,28.72
2022-10-05T13:39:39.347Z,28.66
2022-10-05T13:40:51.273Z,29.26
2022-10-05T13:42:00.127Z,28.46
2022-10-05T13:43:19.161Z,28.04
2022-10-05T13:44:32.606Z,28.14
2022-10-05T13:45:45.773Z,29.17
2022-10-05T13:46:50.179Z,29.21
2022-10-05T13:48:11.906Z,28.40
2022-10-05T13:49:26.626Z,28.88
2022-10-05T13:50:34.135Z,28.52
2022-10-05T13:51:46.886Z,29.16
2022-10-05T13:52:56.547Z,29.67
2022-10-05T13:54:07.561Z,30.50
2022-10-05T13:55:23.853Z,30.29
2022-10-05T13:56:30.738Z,31.03
2022-10-05T13:57:48.341Z,30.91
2022-10-05T13:59:01.333Z,29.05
2022-10-05T14:00:13.925Z,30.55
2022-10-05T14:01:25.148Z,28.73
2022-10-05T14:02:30.492Z,28.10
2022-10-05T14:03:37.590Z,27.79
2022-10-05T14:04:47.059Z,28.89
2022-10-05T14:05:57.778Z,29.77
2022-10-05T14:07:23.403Z,31.05
2022-10-05T14:08:34.690Z,31.70
2022-10-05T14:09:37.128Z,31.84
2022-10-05T14:10:44.147Z,30.72
2022-10-05T14:11:53.556Z,31.08
2022-10-05T14:12:58.255Z,29.70
2022-10-05T14:14:15.253Z,30.22
2022-10-05T14:15:21.473Z,30.01
2022-10-05T14:16:28.174Z,29.76
2022-10-05T14:17:43.903Z,28.81
2022-10-05T14:18:58.565Z,29.14
2022-10-05T14:20:03.044Z,28.99
2022-10-05T14:21:22.293Z,29.96
2022-10-05T14:22:27.631Z,29.76
2022-10-05T14:23:32.499Z,30.01
2022-10-05T14:24:45.024Z,30.55
2022-10-05T14:25:54.200Z,30.13
2022-10-05T14:26:58.773Z,29.73
2022-10-05T14:28:06.387Z,29.64
2022-10-05T14:29:19.130Z,29.99
2022-10-05T14:30:25.835Z,30.36
2022-10-05T14:31:31.329Z,29.38
2022-10-05T14:32:50.464Z,29.56
2022-10-05T14:33:52.670Z,29.13
2022-10-05T14:35:15.761Z,29.14
2022-10-05T14:36:35.149Z,30.79
2022-10-05T14:37:53.386Z,29.75
2022-10-05T14:38:57.918Z,30.84
2022-10-05T14:40:23.554Z,31.03
2022-10-05T14:41:28.532Z,29.45
2022-10-05T14:42:47.274Z,28.95
2022-10-05T14:43:51.684Z,28.30
2022-10-05T14:45:02.843Z,27.94
2022-10-05T14:46:27.190Z,27.49
2022-10-05T14:47:39.710Z,28.67
2022-10-05T14:48:42.499Z,27.86
2022-10-05T14:50:10.799Z,26.86
2022-10-05T14:51:31.929Z,27.06
2022-10-05T14:52:34.857Z,27.61
2022-10-05T14:53:58.780Z,26.86
2022-10-05T14:55:08.690Z,27.65
2022-10-05T14:56:36.873Z,27.60
2022-10-05T14:57:49.908Z,29.28
2022-10-05T14:59:22.346Z,29.43
2022-10-05T15:00:26.135Z,30.13
2022-10-05T15:01:35.197Z,30.54
2022-10-05T15:03:21.554Z,31.73
2022-10-05T15:04:34.477Z,31.37
2022-10-05T15:05:47.712Z,30.33
2022-10-05T15:07:03.845Z,27.94
2022-10-05T15:08:21.087Z,27.65
2022-10-05T15:09:42.390Z,28.17
2022-10-05T15:10:51.131Z,27.87
2022-10-05T15:11:59.283Z,29.10
2022-10-05T15:13:15.229Z,29.91
2022-10-05T15:14:24.751Z,30.37
2022-10-05T15:15:34.582Z,30.32
2022-10-05T15:16:42.208Z,28.97
2022-10-05T15:17:52.582Z,29.65
2022-10-05T15:19:05.646Z,28.64
2022-10-05T15:20:24.631Z,28.75
2022-10-05T15:21:43.944Z,29.03
2022-10-05T15:22:55.955Z,28.86
2022-10-05T15:24:02.907Z,28.73
2022-10-05T15:25:17.712Z,27.78
2022-10-05T15:26:33.377Z,28.09
2022-10-05T15:28:04.209Z,27.17
2022-10-05T15:29:20.518Z,26.99
2022-10-05T15:30:24.634Z,27.80
2022-10-05T15:31:39.497Z,27.11
2022-10-05T15:32:59.828Z,26.08
2022-10-05T15:34:08.106Z,26.50
2022-10-05T15:35:37.349Z,25.86
2022-10-05T15:36:48.234Z,25.71
2022-10-05T15:37:55.483Z,26.73
2022-10-05T15:39:08.404Z,27.37
2022-10-05T15:40:27.072Z,27.26
2022-10-05T15:41:53.208Z,27.80
2022-10-05T15:43:01.810Z,28.06
2022-10-05T15:44:18.422Z,28.21
2022-10-05T15:45:29.960Z,27.93
2022-10-05T15:46:37.247Z,27.99
2022-10-05T15:47:52.405Z,27.58
2022-10-05T15:49:08.582Z,27.65
2022-10-05T15:50:22.517Z,27.59
2022-10-05T15:51:42.417Z,27.78
2022-10-05T15:52:51.317Z,27.10
2022-10-05T15:54:16.546Z,27.07
2022-10-05T15:55:32.726Z,27.12
2022-10-05T15:56:38.719Z,27.38
2022-10-05T15:57:51.891Z,27.79
2022-10-05T15:58:55.624Z,27.77
2022-10-05T16:00:04.688Z,26.88
2022-10-05T16:01:11.934Z,27.07
2022-10-05T16:02:22.713Z,26.69
2022-10-05T16:03:38.295Z,26.40
2022-10-05T16:04:48.181Z,25.65
2022-10-05T16:06:09.000Z,25.57
2022-10-05T16:07:32.043Z,25.17
2022-10-05T16:08:54.351Z,25.38
2022-10-05T16:10:11.811Z,24.20
2022-10-05T16:11:36.785Z,23.49
2022-10-05T16:12:50.927Z,22.79
2022-10-05T16:14:05.387Z,22.50
2022-10-05T16:15:26.581Z,22.32
2022-10-05T16:16:38.154Z,21.95
2022-10-05T16:18:12.240Z,21.65
2022-10-05T16:19:22.199Z,21.77
2022-10-05T16:20:45.919Z,21.52
2022-10-05T16:21:56.765Z,21.20
2022-10-05T16:23:08.096Z,20.88
2022-10-05T16:24:24.705Z,20.65
2022-10-05T16:25:35.340Z,20.54
2022-10-05T16:26:58.672Z,20.58
2022-10-05T16:28:10.985Z,20.40
2022-10-05T16:29:25.028Z,20.26
2022-10-05T16:30:40.384Z,20.26
2022-10-05T16:31:56.943Z,19.98
2022-10-05T16:33:08.249Z,19.81
2022-10-05T16:34:23.368Z,19.68
2022-10-05T16:35:38.511Z,19.67
2022-10-05T16:36:55.951Z,19.58
2022-10-05T16:38:08.123Z,19.51
2022-10-05T16:39:18.723Z,19.32
2022-10-05T16:40:31.016Z,19.18
2022-10-05T16:41:39.098Z,19.08
2022-10-05T16:42:57.968Z,18.87
2022-10-05T16:44:13.041Z,18.72
2022-10-05T16:45:30.062Z,18.65
2022-10-05T16:46:42.544Z,18.52
2022-10-05T16:47:50.658Z,18.53
2022-10-05T16:49:04.152Z,18.51
2022-10-05T16:50:27.750Z,18.39
2022-10-05T16:51:40.693Z,18.27
2022-10-05T16:52:47.258Z,18.21
2022-10-05T16:54:01.334Z,18.11
2022-10-05T16:55:13.407Z,18.00
2022-10-05T16:56:21.288Z,17.87
2022-10-05T16:57:28.361Z,17.81
2022-10-05T16:58:47.890Z,17.74
2022-10-05T17:00:15.535Z,17.70
2022-10-05T17:01:42.224Z,17.64
2022-10-05T17:03:08.286Z,17.67
2022-10-05T17:04:31.584Z,17.59
2022-10-05T17:05:55.180Z,17.45
2022-10-05T17:07:14.404Z,17.39
2022-10-05T17:08:36.756Z,17.23
2022-10-05T17:10:05.936Z,17.28
2022-10-05T17:11:19.299Z,17.30
2022-10-05T17:12:42.431Z,17.21
2022-10-05T17:14:08.189Z,17.32
2022-10-05T17:15:29.704Z,17.31
2022-10-05T17:16:48.192Z,17.26
2022-10-05T17:18:04.030Z,17.29
2022-10-05T17:19:16.599Z,17.22
2022-10-05T17:20:42.440Z,17.27
2022-10-05T17:21:50.155Z,17.34
2022-10-05T17:22:59.289Z,17.38
2022-10-05T17:24:15.477Z,17.31
2022-10-05T17:25:25.290Z,17.25
2022-10-05T17:26:52.831Z,17.26
2022-10-05T17:28:00.294Z,17.16
2022-10-05T17:29:16.647Z,17.03
2022-10-05T17:30:37.771Z,17.01
2022-10-05T17:32:02.056Z,16.83
2022-10-05T17:33:22.489Z,16.89
2022-10-05T17:34:29.242Z,16.95
2022-10-05T17:36:00.979Z,16.83
2022-10-05T17:37:17.981Z,16.87
2022-10-05T17:38:25.114Z,16.82
2022-10-05T17:39:46.813Z,16.70
2022-10-05T17:41:18.380Z,16.61
2022-10-05T17:42:51.740Z,16.47
2022-10-05T17:44:27.208Z,16.38
2022-10-05T17:45:54.365Z,16.26
2022-10-05T17:47:00.844Z,16.21
2022-10-05T17:48:05.392Z,16.17
2022-10-05T17:49:23.316Z,16.14
2022-10-05T17:50:54.506Z,16.10
2022-10-05T17:52:14.238Z,15.99
2022-10-05T17:53:50.019Z,15.83
2022-10-05T17:55:30.164Z,15.74
2022-10-05T17:56:56.044Z,15.71
2022-10-05T17:58:00.775Z,15.70
2022-10-05T17:59:07.494Z,15.62
2022-10-05T18:00:32.474Z,15.69
2022-10-05T18:01:42.226Z,15.64
2022-10-05T18:02:44.321Z,15.86
2022-10-05T18:03:51.836Z,15.82
2022-10-05T18:05:05.424Z,15.76
2022-10-05T18:06:32.387Z,15.65
2022-10-05T18:07:38.357Z,15.57
2022-10-05T18:08:41.507Z,15.51
2022-10-05T18:10:22.152Z,15.43
2022-10-05T18:11:40.636Z,15.32
2022-10-05T18:12:50.584Z,15.32
2022-10-05T18:14:16.104Z,15.27
2022-10-05T18:15:49.357Z,15.27
2022-10-05T18:17:02.514Z,15.19
2022-10-05T18:18:38.710Z,15.07
2022-10-05T18:19:41.594Z,14.98
2022-10-05T18:21:18.474Z,14.93
2022-10-05T18:22:30.969Z,14.93
2022-10-05T18:23:36.223Z,14.87
2022-10-05T18:25:06.399Z,14.91
2022-10-05T18:26:26.555Z,14.80
2022-10-05T18:28:07.075Z,14.72
2022-10-05T18:29:39.192Z,14.76
2022-10-05T18:31:02.239Z,14.74
2022-10-05T18:32:14.101Z,14.66
2022-10-05T18:33:50.032Z,14.59
2022-10-05T18:35:02.192Z,14.47
2022-10-05T18:36:22.217Z,14.47
